createdAt,value
2022-10-06T00:00:09.291Z,100770.69
2022-10-06T00:00:56.254Z,100761.22
2022-10-06T00:01:43.004Z,100775.97
2022-10-06T00:02:29.899Z,100767.19
2022-10-06T00:03:17.342Z,100770.41
2022-10-06T00:04:04.164Z,100767.88
2022-10-06T00:04:51.011Z,100772.97
2022-10-06T00:05:38.445Z,100769.09
2022-10-06T00:06:25.909Z,100772.81
2022-10-06T00:07:12.767Z,100768.91
2022-10-06T00:08:00.395Z,100768.09
2022-10-06T00:08:48.605Z,100773.81
2022-10-06T00:09:35.403Z,100769.94
2022-10-06T00:10:22.201Z,100773.31
2022-10-06T00:11:09.890Z,100770.28
2022-10-06T00:11:56.584Z,100767.25
2022-10-06T00:12:45.376Z,100775.38
2022-10-06T00:13:32.951Z,100769.97
2022-10-06T00:14:19.998Z,100768.78
2022-10-06T00:15:07.670Z,100772.84
2022-10-06T00:15:54.665Z,100764.06
2022-10-06T00:16:41.543Z,100764.56
2022-10-06T00:17:28.334Z,100772.03
2022-10-06T00:18:15.129Z,100769.31
2022-10-06T00:19:01.994Z,100770.69
2022-10-06T00:19:48.892Z,100770.84
2022-10-06T00:20:35.611Z,100769.47
2022-10-06T00:21:22.476Z,100773.56
2022-10-06T00:22:09.240Z,100771.53
2022-10-06T00:22:57.293Z,100771.88
2022-10-06T00:23:44.230Z,100771.19
2022-10-06T00:24:32.326Z,100776.44
2022-10-06T00:25:21.538Z,100773.91
2022-10-06T00:26:17.417Z,100772.53
2022-10-06T00:27:04.440Z,100771.19
2022-10-06T00:27:52.910Z,100777.47
2022-10-06T00:28:40.161Z,100774.09
2022-10-06T00:29:27.406Z,100770.72
2022-10-06T00:30:21.142Z,100771.03
2022-10-06T00:31:08.093Z,100772.75
2022-10-06T00:31:55.485Z,100774.91
2022-10-06T00:32:42.415Z,100766.13
2022-10-06T00:33:29.246Z,100768.50
2022-10-06T00:34:15.990Z,100768.50
2022-10-06T00:35:03.432Z,100768.16
2022-10-06T00:35:58.985Z,100775.59
2022-10-06T00:36:46.221Z,100764.62
2022-10-06T00:37:38.080Z,100770.19
2022-10-06T00:38:24.869Z,100769.19
2022-10-06T00:39:11.800Z,100770.69
2022-10-06T00:39:58.759Z,100771.19
2022-10-06T00:40:50.394Z,100765.63
2022-10-06T00:41:37.148Z,100763.91
2022-10-06T00:42:30.281Z,100769.31
2022-10-06T00:43:46.767Z,100771.28
2022-10-06T00:44:33.534Z,100773.50
2022-10-06T00:45:27.175Z,100769.09
2022-10-06T00:46:27.313Z,100764.38
2022-10-06T00:47:14.396Z,100764.03
2022-10-06T00:48:05.561Z,100768.75
2022-10-06T00:49:07.248Z,100765.03
2022-10-06T00:49:54.936Z,100771.97
2022-10-06T00:50:42.107Z,100767.75
2022-10-06T00:51:29.525Z,100777.19
2022-10-06T00:52:19.192Z,100772.13
2022-10-06T00:53:06.257Z,100770.75
2022-10-06T00:53:53.512Z,100770.91
2022-10-06T00:54:40.805Z,100764.53
2022-10-06T00:55:27.713Z,100774.31
2022-10-06T00:56:14.564Z,100767.22
2022-10-06T00:57:01.650Z,100773.81
2022-10-06T00:57:48.926Z,100776.31
2022-10-06T00:58:35.906Z,100777.00
2022-10-06T00:59:22.686Z,100770.94
2022-10-06T01:00:11.459Z,100773.94
2022-10-06T01:00:59.594Z,100780.69
2022-10-06T01:02:11.567Z,100777.97
2022-10-06T01:03:03.372Z,100777.28
2022-10-06T01:03:56.080Z,100774.59
2022-10-06T01:04:47.328Z,100777.97
2022-10-06T01:05:37.336Z,100784.03
2022-10-06T01:06:24.126Z,100773.88
2022-10-06T01:07:11.485Z,100777.59
2022-10-06T01:07:58.727Z,100778.78
2022-10-06T01:08:46.227Z,100782.47
2022-10-06T01:09:33.101Z,100786.53
2022-10-06T01:10:20.344Z,100785.50
2022-10-06T01:11:14.494Z,100786.84
2022-10-06T01:12:04.416Z,100778.41
2022-10-06T01:12:52.397Z,100782.44
2022-10-06T01:13:39.423Z,100784.78
2022-10-06T01:14:27.007Z,100782.56
2022-10-06T01:15:14.947Z,100793.53
2022-10-06T01:16:08.074Z,100797.41
2022-10-06T01:17:10.447Z,100793.00
2022-10-06T01:18:08.335Z,100799.41
2022-10-06T01:18:55.961Z,100800.41
2022-10-06T01:19:55.429Z,100793.28
2022-10-06T01:20:47.369Z,100796.97
2022-10-06T01:21:42.319Z,100796.97
2022-10-06T01:22:51.588Z,100807.16
2022-10-06T01:23:38.825Z,100808.03
2022-10-06T01:24:25.566Z,100802.31
2022-10-06T01:25:17.010Z,100798.44
2022-10-06T01:26:07.704Z,100801.66
2022-10-06T01:26:55.459Z,100800.81
2022-10-06T01:27:44.477Z,100801.12
2022-10-06T01:28:31.718Z,100803.97
2022-10-06T01:29:19.303Z,100811.56
2022-10-06T01:30:09.088Z,100799.06
2022-10-06T01:30:56.858Z,100805.16
2022-10-06T01:31:43.779Z,100803.97
2022-10-06T01:32:35.178Z,100807.00
2022-10-06T01:33:22.688Z,100801.59
2022-10-06T01:34:10.045Z,100804.62
2022-10-06T01:34:56.759Z,100801.69
2022-10-06T01:35:46.150Z,100805.34
2022-10-06T01:36:33.041Z,100801.59
2022-10-06T01:37:19.803Z,100807.22
2022-10-06T01:38:06.583Z,100806.19
2022-10-06T01:38:53.383Z,100811.28
2022-10-06T01:39:40.164Z,100804.03
2022-10-06T01:40:29.324Z,100809.59
2022-10-06T01:41:16.402Z,100805.34
2022-10-06T01:42:03.486Z,100815.16
2022-10-06T01:42:50.281Z,100810.37
2022-10-06T01:43:37.063Z,100816.78
2022-10-06T01:44:23.844Z,100815.94
2022-10-06T01:45:10.926Z,100817.94
2022-10-06T01:45:58.996Z,100815.38
2022-10-06T01:46:45.862Z,100814.25
2022-10-06T01:47:34.371Z,100820.41
2022-10-06T01:48:21.196Z,100819.41
2022-10-06T01:49:07.947Z,100823.97
2022-10-06T01:49:54.805Z,100815.16
2022-10-06T01:50:41.637Z,100825.50
2022-10-06T01:51:28.607Z,100820.66
2022-10-06T01:52:15.442Z,100823.37
2022-10-06T01:53:02.643Z,100826.44
2022-10-06T01:53:49.429Z,100834.44
2022-10-06T01:54:36.263Z,100825.53
2022-10-06T01:55:26.083Z,100825.16
2022-10-06T01:56:13.221Z,100821.28
2022-10-06T01:56:59.962Z,100826.22
2022-10-06T01:57:46.728Z,100831.69
2022-10-06T01:58:33.559Z,100826.75
2022-10-06T01:59:20.385Z,100822.97
2022-10-06T02:00:08.470Z,100818.44
2022-10-06T02:00:55.302Z,100822.97
2022-10-06T02:01:42.089Z,100827.06
2022-10-06T02:02:31.775Z,100823.34
2022-10-06T02:03:18.563Z,100829.22
2022-10-06T02:04:05.544Z,100830.25
2022-10-06T02:04:52.605Z,100825.19
2022-10-06T02:05:39.339Z,100833.78
2022-10-06T02:06:26.494Z,100833.09
2022-10-06T02:07:13.444Z,100826.87
2022-10-06T02:08:01.560Z,100828.19
2022-10-06T02:08:48.392Z,100833.72
2022-10-06T02:09:35.408Z,100836.72
2022-10-06T02:10:22.126Z,100841.78
2022-10-06T02:11:10.846Z,100835.56
2022-10-06T02:11:57.853Z,100843.13
2022-10-06T02:12:44.923Z,100841.41
2022-10-06T02:13:32.289Z,100841.88
2022-10-06T02:14:19.121Z,100843.87
2022-10-06T02:15:06.448Z,100843.19
2022-10-06T02:15:57.709Z,100850.94
2022-10-06T02:16:45.344Z,100845.88
2022-10-06T02:17:32.442Z,100845.72
2022-10-06T02:18:19.250Z,100846.56
2022-10-06T02:19:06.630Z,100853.50
2022-10-06T02:19:53.458Z,100851.72
2022-10-06T02:20:40.724Z,100855.00
2022-10-06T02:21:27.799Z,100849.50
2022-10-06T02:22:14.611Z,100851.38
2022-10-06T02:23:01.440Z,100849.75
2022-10-06T02:23:48.986Z,100852.59
2022-10-06T02:24:35.869Z,100851.75
2022-10-06T02:25:22.727Z,100856.88
2022-10-06T02:26:09.643Z,100853.28
2022-10-06T02:26:56.748Z,100846.22
2022-10-06T02:27:43.640Z,100853.47
2022-10-06T02:28:31.609Z,100849.38
2022-10-06T02:29:18.965Z,100853.94
2022-10-06T02:30:07.331Z,100851.63
2022-10-06T02:30:54.931Z,100848.22
2022-10-06T02:31:41.937Z,100858.06
2022-10-06T02:32:39.607Z,100864.34
2022-10-06T02:33:26.333Z,100857.94
2022-10-06T02:34:13.354Z,100865.19
2022-10-06T02:35:00.400Z,100860.00
2022-10-06T02:35:47.403Z,100863.41
2022-10-06T02:36:34.257Z,100856.50
2022-10-06T02:37:21.007Z,100863.09
2022-10-06T02:38:07.748Z,100858.16
2022-10-06T02:38:54.809Z,100854.06
2022-10-06T02:39:42.347Z,100855.47
2022-10-06T02:40:29.169Z,100857.91
2022-10-06T02:41:15.992Z,100856.88
2022-10-06T02:42:04.873Z,100854.88
2022-10-06T02:42:51.887Z,100856.88
2022-10-06T02:43:38.769Z,100856.50
2022-10-06T02:44:25.620Z,100852.09
2022-10-06T02:45:12.636Z,100853.09
2022-10-06T02:46:01.445Z,100855.62
2022-10-06T02:46:48.554Z,100853.81
2022-10-06T02:47:37.121Z,100857.34
2022-10-06T02:48:24.709Z,100854.37
2022-10-06T02:49:11.565Z,100851.69
2022-10-06T02:50:02.123Z,100854.66
2022-10-06T02:50:59.759Z,100856.06
2022-10-06T02:51:46.797Z,100853.22
2022-10-06T02:52:35.620Z,100860.03
2022-10-06T02:53:22.446Z,100858.72
2022-10-06T02:54:09.209Z,100855.62
2022-10-06T02:54:56.093Z,100854.25
2022-10-06T02:55:42.817Z,100849.00
2022-10-06T02:56:29.612Z,100856.81
2022-10-06T02:57:16.543Z,100854.25
2022-10-06T02:58:03.916Z,100850.87
2022-10-06T02:58:51.978Z,100850.31
2022-10-06T02:59:38.846Z,100851.31
2022-10-06T03:00:26.263Z,100844.78
2022-10-06T03:01:15.925Z,100848.88
2022-10-06T03:02:03.262Z,100844.66
2022-10-06T03:02:50.387Z,100853.16
2022-10-06T03:03:37.683Z,100848.38
2022-10-06T03:04:24.546Z,100846.06
2022-10-06T03:05:11.466Z,100851.19
2022-10-06T03:06:06.874Z,100841.94
2022-10-06T03:06:54.227Z,100854.44
2022-10-06T03:07:41.052Z,100857.00
2022-10-06T03:08:28.209Z,100849.19
2022-10-06T03:09:15.508Z,100856.12
2022-10-06T03:10:02.305Z,100854.28
2022-10-06T03:10:49.066Z,100858.69
2022-10-06T03:11:37.611Z,100850.34
2022-10-06T03:12:24.601Z,100849.50
2022-10-06T03:13:11.500Z,100850.47
2022-10-06T03:13:58.418Z,100855.03
2022-10-06T03:14:45.292Z,100859.41
2022-10-06T03:15:32.096Z,100859.72
2022-10-06T03:16:19.904Z,100853.19
2022-10-06T03:17:08.666Z,100859.56
2022-10-06T03:17:55.488Z,100858.28
2022-10-06T03:18:47.169Z,100856.19
2022-10-06T03:19:34.064Z,100858.72
2022-10-06T03:20:20.918Z,100859.00
2022-10-06T03:21:07.799Z,100865.97
2022-10-06T03:21:54.764Z,100865.25
2022-10-06T03:22:41.580Z,100863.97
2022-10-06T03:23:28.395Z,100861.44
2022-10-06T03:24:15.603Z,100861.44
2022-10-06T03:25:02.410Z,100856.63
2022-10-06T03:25:56.884Z,100862.97
2022-10-06T03:26:45.758Z,100856.75
2022-10-06T03:27:32.644Z,100857.91
2022-10-06T03:28:19.524Z,100855.34
2022-10-06T03:29:11.347Z,100851.53
2022-10-06T03:29:58.628Z,100846.44
2022-10-06T03:30:45.416Z,100834.97
2022-10-06T03:31:32.311Z,100827.75
2022-10-06T03:32:19.399Z,100822.78
2022-10-06T03:33:06.230Z,100839.25
2022-10-06T03:33:54.634Z,100831.31
2022-10-06T03:34:41.450Z,100837.97
2022-10-06T03:35:28.408Z,100833.59
2022-10-06T03:36:21.088Z,100832.28
2022-10-06T03:37:07.899Z,100833.28
2022-10-06T03:37:54.692Z,100836.38
2022-10-06T03:38:41.887Z,100837.97
2022-10-06T03:39:28.817Z,100835.53
2022-10-06T03:40:15.681Z,100835.97
2022-10-06T03:41:13.627Z,100834.44
2022-10-06T03:42:00.445Z,100836.84
2022-10-06T03:42:47.247Z,100838.41
2022-10-06T03:43:34.767Z,100836.53
2022-10-06T03:44:23.011Z,100838.66
2022-10-06T03:45:10.312Z,100830.59
2022-10-06T03:45:58.067Z,100830.47
2022-10-06T03:46:44.940Z,100832.16
2022-10-06T03:47:31.766Z,100827.06
2022-10-06T03:48:18.531Z,100829.91
2022-10-06T03:49:05.601Z,100834.28
2022-10-06T03:49:52.407Z,100831.59
2022-10-06T03:50:39.361Z,100833.00
2022-10-06T03:51:29.890Z,100833.72
2022-10-06T03:52:16.765Z,100829.03
2022-10-06T03:53:03.757Z,100841.09
2022-10-06T03:53:51.963Z,100833.84
2022-10-06T03:54:38.848Z,100836.69
2022-10-06T03:55:25.758Z,100838.97
2022-10-06T03:56:18.423Z,100836.41
2022-10-06T03:57:05.209Z,100835.69
2022-10-06T03:57:52.043Z,100836.56
2022-10-06T03:58:40.904Z,100834.84
2022-10-06T03:59:31.565Z,100837.13
2022-10-06T04:00:18.206Z,100831.03
2022-10-06T04:01:11.375Z,100828.78
2022-10-06T04:01:58.338Z,100840.94
2022-10-06T04:02:45.159Z,100829.19
2022-10-06T04:03:32.814Z,100831.47
2022-10-06T04:04:19.663Z,100835.12
2022-10-06T04:05:07.087Z,100833.44
2022-10-06T04:05:58.087Z,100834.16
2022-10-06T04:06:45.111Z,100841.50
2022-10-06T04:07:31.893Z,100829.78
2022-10-06T04:08:19.116Z,100831.06
2022-10-06T04:09:10.298Z,100837.41
2022-10-06T04:10:00.903Z,100831.19
2022-10-06T04:10:47.924Z,100830.63
2022-10-06T04:11:37.816Z,100838.38
2022-10-06T04:12:24.687Z,100831.03
2022-10-06T04:13:11.525Z,100837.41
2022-10-06T04:14:00.788Z,100832.88
2022-10-06T04:14:47.726Z,100833.31
2022-10-06T04:15:34.591Z,100834.16
2022-10-06T04:16:23.678Z,100833.19
2022-10-06T04:17:10.586Z,100834.16
2022-10-06T04:17:57.449Z,100831.06
2022-10-06T04:18:45.886Z,100837.41
2022-10-06T04:19:32.792Z,100839.66
2022-10-06T04:20:19.628Z,100836.72
2022-10-06T04:21:06.527Z,100843.06
2022-10-06T04:21:53.362Z,100844.19
2022-10-06T04:22:40.183Z,100839.66
2022-10-06T04:23:27.032Z,100840.66
2022-10-06T04:24:14.147Z,100840.37
2022-10-06T04:25:00.939Z,100832.88
2022-10-06T04:25:48.965Z,100837.13
2022-10-06T04:26:40.921Z,100841.81
2022-10-06T04:27:27.701Z,100843.06
2022-10-06T04:28:14.572Z,100840.94
2022-10-06T04:29:01.686Z,100842.78
2022-10-06T04:29:48.497Z,100843.50
2022-10-06T04:30:35.414Z,100846.03
2022-10-06T04:31:24.573Z,100843.34
2022-10-06T04:32:11.705Z,100839.53
2022-10-06T04:32:58.480Z,100838.81
2022-10-06T04:33:47.166Z,100847.03
2022-10-06T04:34:33.961Z,100843.50
2022-10-06T04:35:20.775Z,100845.91
2022-10-06T04:36:09.030Z,100839.81
2022-10-06T04:36:56.003Z,100843.91
2022-10-06T04:37:43.082Z,100844.06
2022-10-06T04:38:33.168Z,100846.03
2022-10-06T04:39:20.232Z,100836.84
2022-10-06T04:40:07.713Z,100842.78
2022-10-06T04:40:54.652Z,100843.34
2022-10-06T04:41:42.707Z,100846.03
2022-10-06T04:42:34.685Z,100848.59
2022-10-06T04:43:22.046Z,100849.44
2022-10-06T04:44:09.278Z,100850.16
2022-10-06T04:44:56.220Z,100850.00
2022-10-06T04:45:43.167Z,100852.41
2022-10-06T04:46:42.624Z,100846.31
2022-10-06T04:47:30.684Z,100851.13
2022-10-06T04:48:17.515Z,100856.25
2022-10-06T04:49:04.950Z,100856.38
2022-10-06T04:49:51.727Z,100855.09
2022-10-06T04:50:38.550Z,100857.78
2022-10-06T04:51:26.767Z,100854.66
2022-10-06T04:52:13.513Z,100850.00
2022-10-06T04:53:00.286Z,100854.25
2022-10-06T04:53:47.607Z,100855.53
2022-10-06T04:54:34.457Z,100860.75
2022-10-06T04:55:21.228Z,100860.75
2022-10-06T04:56:11.703Z,100853.84
2022-10-06T04:56:58.649Z,100856.06
2022-10-06T04:57:45.567Z,100857.78
2022-10-06T04:58:34.235Z,100858.75
2022-10-06T04:59:20.999Z,100851.97
2022-10-06T05:00:25.759Z,100861.91
2022-10-06T05:01:20.856Z,100860.63
2022-10-06T05:02:08.024Z,100858.91
2022-10-06T05:02:56.155Z,100866.84
2022-10-06T05:03:44.556Z,100869.41
2022-10-06T05:04:31.327Z,100866.41
2022-10-06T05:05:18.097Z,100867.41
2022-10-06T05:06:19.704Z,100865.84
2022-10-06T05:07:06.643Z,100866.12
2022-10-06T05:07:53.429Z,100865.69
2022-10-06T05:08:40.698Z,100865.56
2022-10-06T05:09:27.487Z,100869.78
2022-10-06T05:10:14.447Z,100866.84
2022-10-06T05:11:06.458Z,100864.56
2022-10-06T05:11:53.298Z,100875.31
2022-10-06T05:12:40.389Z,100877.87
2022-10-06T05:13:27.344Z,100869.78
2022-10-06T05:14:14.236Z,100874.03
2022-10-06T05:15:01.289Z,100873.44
2022-10-06T05:15:56.798Z,100878.25
2022-10-06T05:16:43.704Z,100873.56
2022-10-06T05:17:30.477Z,100875.41
2022-10-06T05:18:17.276Z,100872.53
2022-10-06T05:19:04.054Z,100879.19
2022-10-06T05:19:51.594Z,100877.34
2022-10-06T05:20:40.029Z,100882.03
2022-10-06T05:21:29.191Z,100889.69
2022-10-06T05:22:15.990Z,100888.94
2022-10-06T05:23:06.908Z,100887.25
2022-10-06T05:23:53.860Z,100888.03
2022-10-06T05:24:41.459Z,100885.22
2022-10-06T05:25:28.241Z,100888.03
2022-10-06T05:26:17.690Z,100888.59
2022-10-06T05:27:04.550Z,100893.09
2022-10-06T05:27:51.318Z,100896.25
2022-10-06T05:28:38.313Z,100897.50
2022-10-06T05:29:25.102Z,100897.91
2022-10-06T05:30:12.173Z,100898.31
2022-10-06T05:31:00.998Z,100896.16
2022-10-06T05:31:48.183Z,100904.94
2022-10-06T05:32:36.327Z,100899.78
2022-10-06T05:33:24.238Z,100898.50
2022-10-06T05:34:11.024Z,100897.78
2022-10-06T05:34:57.894Z,100892.28
2022-10-06T05:35:58.381Z,100904.31
2022-10-06T05:36:45.811Z,100900.84
2022-10-06T05:37:32.901Z,100901.97
2022-10-06T05:38:19.963Z,100904.94
2022-10-06T05:39:06.747Z,100897.69
2022-10-06T05:39:53.480Z,100911.34
2022-10-06T05:40:40.262Z,100912.88
2022-10-06T05:41:29.450Z,100911.59
2022-10-06T05:42:16.410Z,100905.03
2022-10-06T05:43:03.123Z,100902.19
2022-10-06T05:43:50.096Z,100906.00
2022-10-06T05:44:36.954Z,100912.94
2022-10-06T05:45:23.835Z,100909.13
2022-10-06T05:46:20.582Z,100908.72
2022-10-06T05:47:07.524Z,100899.41
2022-10-06T05:47:54.631Z,100903.88
2022-10-06T05:48:41.961Z,100914.53
2022-10-06T05:49:28.727Z,100918.06
2022-10-06T05:50:15.450Z,100915.69
2022-10-06T05:51:10.957Z,100910.75
2022-10-06T05:51:57.702Z,100903.44
2022-10-06T05:52:44.528Z,100909.91
2022-10-06T05:53:32.244Z,100911.44
2022-10-06T05:54:19.215Z,100912.19
2022-10-06T05:55:07.170Z,100919.13
2022-10-06T05:56:07.287Z,100914.03
2022-10-06T05:56:54.230Z,100906.00
2022-10-06T05:57:41.042Z,100917.41
2022-10-06T05:58:28.643Z,100917.59
2022-10-06T05:59:15.701Z,100922.38
2022-10-06T06:00:02.559Z,100916.78
2022-10-06T06:00:49.379Z,100924.28
2022-10-06T06:01:40.173Z,100920.25
2022-10-06T06:02:27.569Z,100919.13
2022-10-06T06:03:14.367Z,100913.47
2022-10-06T06:04:03.358Z,100921.44
2022-10-06T06:04:50.126Z,100921.31
2022-10-06T06:05:43.408Z,100920.84
2022-10-06T06:06:40.969Z,100922.88
2022-10-06T06:07:27.807Z,100926.50
2022-10-06T06:08:14.644Z,100922.13
2022-10-06T06:09:04.306Z,100927.41
2022-10-06T06:09:51.062Z,100926.75
2022-10-06T06:10:37.916Z,100931.50
2022-10-06T06:11:31.666Z,100925.41
2022-10-06T06:12:18.462Z,100929.66
2022-10-06T06:13:06.367Z,100936.66
2022-10-06T06:13:56.285Z,100936.81
2022-10-06T06:15:02.137Z,100940.69
2022-10-06T06:16:01.205Z,100930.91
2022-10-06T06:16:47.998Z,100935.31
2022-10-06T06:17:35.020Z,100938.34
2022-10-06T06:18:21.727Z,100947.00
2022-10-06T06:19:10.009Z,100949.84
2022-10-06T06:19:56.977Z,100940.53
2022-10-06T06:20:43.809Z,100942.41
2022-10-06T06:21:30.680Z,100942.88
2022-10-06T06:22:17.435Z,100944.41
2022-10-06T06:23:06.120Z,100948.13
2022-10-06T06:23:54.126Z,100941.16
2022-10-06T06:24:41.486Z,100951.47
2022-10-06T06:25:30.003Z,100949.94
2022-10-06T06:26:30.066Z,100949.56
2022-10-06T06:27:21.806Z,100956.47
2022-10-06T06:28:09.101Z,100952.53
2022-10-06T06:29:04.328Z,100949.63
2022-10-06T06:29:51.141Z,100960.62
2022-10-06T06:30:38.272Z,100956.22
2022-10-06T06:31:27.495Z,100968.75
2022-10-06T06:32:14.364Z,100964.00
2022-10-06T06:33:01.086Z,100964.47
2022-10-06T06:33:49.011Z,100955.56
2022-10-06T06:34:35.704Z,100961.34
2022-10-06T06:35:22.509Z,100960.41
2022-10-06T06:36:22.903Z,100956.16
2022-10-06T06:37:15.032Z,100969.84
2022-10-06T06:38:02.136Z,100964.75
2022-10-06T06:38:53.532Z,100961.78
2022-10-06T06:39:40.347Z,100972.75
2022-10-06T06:40:27.062Z,100971.53
2022-10-06T06:41:18.679Z,100976.06
2022-10-06T06:42:08.640Z,100978.22
2022-10-06T06:42:55.420Z,100977.56
2022-10-06T06:43:42.656Z,100975.50
2022-10-06T06:44:30.266Z,100982.25
2022-10-06T06:45:17.038Z,100982.44
2022-10-06T06:46:04.500Z,100983.97
2022-10-06T06:46:51.436Z,100986.31
2022-10-06T06:47:38.199Z,100986.25
2022-10-06T06:48:24.878Z,100980.25
2022-10-06T06:49:12.337Z,100987.19
2022-10-06T06:50:00.355Z,100989.56
2022-10-06T06:50:56.413Z,100989.84
2022-10-06T06:51:44.847Z,100994.16
2022-10-06T06:52:32.660Z,100996.03
2022-10-06T06:53:19.408Z,100996.03
2022-10-06T06:54:07.087Z,100987.72
2022-10-06T06:54:53.809Z,100994.47
2022-10-06T06:55:51.201Z,100994.25
2022-10-06T06:56:39.059Z,100992.03
2022-10-06T06:57:26.199Z,100993.72
2022-10-06T06:58:12.863Z,100997.47
2022-10-06T06:58:59.626Z,100998.12
2022-10-06T06:59:46.400Z,100995.72
2022-10-06T07:00:36.152Z,101000.38
2022-10-06T07:01:23.693Z,101004.62
2022-10-06T07:02:12.125Z,101000.50
2022-10-06T07:03:00.808Z,100995.91
2022-10-06T07:03:58.002Z,100996.25
2022-10-06T07:04:45.270Z,101003.69
2022-10-06T07:05:32.523Z,101003.97
2022-10-06T07:06:19.405Z,101009.97
2022-10-06T07:07:06.166Z,101006.31
2022-10-06T07:07:52.898Z,101007.06
2022-10-06T07:08:44.722Z,101003.41
2022-10-06T07:09:31.511Z,101011.00
2022-10-06T07:10:18.305Z,101009.78
2022-10-06T07:11:23.693Z,101013.56
2022-10-06T07:12:11.676Z,101011.28
2022-10-06T07:12:58.520Z,101009.53
2022-10-06T07:13:46.207Z,101010.37
2022-10-06T07:14:33.205Z,101015.81
2022-10-06T07:15:38.353Z,101014.59
2022-10-06T07:16:44.084Z,101016.84
2022-10-06T07:17:49.454Z,101014.59
2022-10-06T07:18:55.527Z,101016.28
2022-10-06T07:19:51.621Z,101018.34
2022-10-06T07:20:57.276Z,101020.84
2022-10-06T07:22:03.295Z,101016.34
2022-10-06T07:23:08.767Z,101017.25
2022-10-06T07:24:13.992Z,101017.25
2022-10-06T07:25:08.041Z,101020.16
2022-10-06T07:25:54.798Z,101022.91
2022-10-06T07:26:41.573Z,101019.41
2022-10-06T07:27:29.191Z,101022.59
2022-10-06T07:28:17.331Z,101018.56
2022-10-06T07:29:04.092Z,101019.22
2022-10-06T07:29:54.591Z,101018.47
2022-10-06T07:30:41.662Z,101017.88
2022-10-06T07:31:33.699Z,101024.63
2022-10-06T07:32:25.081Z,101025.94
2022-10-06T07:33:11.929Z,101025.47
2022-10-06T07:33:58.687Z,101025.09
2022-10-06T07:34:45.378Z,101026.31
2022-10-06T07:35:32.205Z,101024.44
2022-10-06T07:36:20.840Z,101031.00
2022-10-06T07:37:07.617Z,101025.81
2022-10-06T07:37:54.406Z,101033.53
2022-10-06T07:38:41.712Z,101029.56
2022-10-06T07:39:28.439Z,101030.22
2022-10-06T07:40:15.501Z,101033.06
2022-10-06T07:42:15.558Z,101039.44
2022-10-06T07:43:02.827Z,101035.09
2022-10-06T07:43:49.776Z,101039.81
2022-10-06T07:44:36.490Z,101041.13
2022-10-06T07:45:38.506Z,101039.81
2022-10-06T07:46:25.556Z,101045.56
2022-10-06T07:47:12.659Z,101033.66
2022-10-06T07:48:00.821Z,101037.31
2022-10-06T07:48:50.369Z,101038.75
2022-10-06T07:49:37.087Z,101034.19
2022-10-06T07:50:26.120Z,101038.03
2022-10-06T07:51:14.982Z,101041.34
2022-10-06T07:52:02.810Z,101038.88
2022-10-06T07:52:49.548Z,101045.88
2022-10-06T07:53:37.624Z,101051.59
2022-10-06T07:54:27.454Z,101044.25
2022-10-06T07:55:17.858Z,101042.56
2022-10-06T07:56:08.538Z,101047.44
2022-10-06T07:56:55.487Z,101050.44
2022-10-06T07:57:46.143Z,101039.22
2022-10-06T07:58:33.332Z,101047.78
2022-10-06T07:59:20.738Z,101050.31
2022-10-06T08:00:08.366Z,101046.28
2022-10-06T08:00:55.128Z,101042.59
2022-10-06T08:01:44.268Z,101044.72
2022-10-06T08:02:34.698Z,101047.78
2022-10-06T08:03:22.879Z,101044.28
2022-10-06T08:04:10.401Z,101047.03
2022-10-06T08:04:57.112Z,101041.63
2022-10-06T08:05:45.058Z,101049.00
2022-10-06T08:06:31.799Z,101050.87
2022-10-06T08:07:18.951Z,101053.00
2022-10-06T08:08:06.287Z,101040.81
2022-10-06T08:08:53.458Z,101046.72
2022-10-06T08:09:40.408Z,101046.13
2022-10-06T08:10:27.203Z,101051.53
2022-10-06T08:11:14.876Z,101049.50
2022-10-06T08:12:21.586Z,101045.97
2022-10-06T08:13:09.164Z,101055.00
2022-10-06T08:13:56.060Z,101057.53
2022-10-06T08:14:42.776Z,101056.53
2022-10-06T08:15:29.566Z,101059.03
2022-10-06T08:16:21.138Z,101056.66
2022-10-06T08:17:08.022Z,101060.94
2022-10-06T08:17:54.747Z,101060.53
2022-10-06T08:18:46.518Z,101066.41
2022-10-06T08:19:33.943Z,101058.22
2022-10-06T08:20:20.680Z,101065.50
2022-10-06T08:21:14.565Z,101068.50
2022-10-06T08:22:04.781Z,101064.19
2022-10-06T08:22:51.639Z,101073.87
2022-10-06T08:23:42.574Z,101067.78
2022-10-06T08:24:37.870Z,101062.94
2022-10-06T08:25:42.806Z,101065.91
2022-10-06T08:26:31.203Z,101067.00
2022-10-06T08:27:17.995Z,101077.94
2022-10-06T08:28:05.710Z,101076.72
2022-10-06T08:28:55.454Z,101072.34
2022-10-06T08:29:42.200Z,101074.28
2022-10-06T08:30:29.196Z,101078.22
2022-10-06T08:31:17.901Z,101077.00
2022-10-06T08:32:04.760Z,101079.72
2022-10-06T08:32:51.680Z,101075.78
2022-10-06T08:33:39.779Z,101077.81
2022-10-06T08:34:26.653Z,101081.25
2022-10-06T08:35:14.332Z,101080.00
2022-10-06T08:36:10.200Z,101084.37
2022-10-06T08:37:18.723Z,101086.00
2022-10-06T08:38:04.406Z,101079.03
2022-10-06T08:38:51.200Z,101079.75
2022-10-06T08:39:37.966Z,101083.09
2022-10-06T08:40:26.120Z,101075.16
2022-10-06T08:41:40.122Z,101083.38
2022-10-06T08:42:26.806Z,101083.44
2022-10-06T08:43:17.903Z,101079.41
2022-10-06T08:44:19.855Z,101076.03
2022-10-06T08:45:13.592Z,101079.03
2022-10-06T08:46:02.209Z,101083.22
2022-10-06T08:47:01.471Z,101084.25
2022-10-06T08:48:00.600Z,101076.88
2022-10-06T08:48:47.441Z,101088.25
2022-10-06T08:49:47.947Z,101079.41
2022-10-06T08:50:39.123Z,101083.03
2022-10-06T08:51:33.248Z,101089.78
2022-10-06T08:52:46.415Z,101086.41
2022-10-06T08:53:47.174Z,101087.09
2022-10-06T08:54:49.605Z,101086.03
2022-10-06T08:55:39.429Z,101093.84
2022-10-06T08:56:34.600Z,101088.56
2022-10-06T08:57:31.166Z,101094.31
2022-10-06T08:58:29.437Z,101089.22
2022-10-06T08:59:17.751Z,101092.22
2022-10-06T09:00:19.368Z,101092.41
2022-10-06T09:01:20.377Z,101083.78
2022-10-06T09:02:31.085Z,101086.88
2022-10-06T09:03:25.119Z,101093.00
2022-10-06T09:04:28.558Z,101090.94
2022-10-06T09:05:24.105Z,101085.47
2022-10-06T09:06:40.665Z,101081.91
2022-10-06T09:07:53.435Z,101090.59
2022-10-06T09:08:51.628Z,101088.88
2022-10-06T09:09:54.151Z,101091.22
2022-10-06T09:10:45.282Z,101080.69
2022-10-06T09:12:15.771Z,101092.91
2022-10-06T09:13:05.166Z,101087.72
2022-10-06T09:14:03.603Z,101087.28
2022-10-06T09:14:57.327Z,101078.88
2022-10-06T09:16:08.094Z,101084.13
2022-10-06T09:16:57.614Z,101090.44
2022-10-06T09:17:54.455Z,101090.38
2022-10-06T09:19:07.225Z,101096.44
2022-10-06T09:20:04.417Z,101093.53
2022-10-06T09:21:05.406Z,101094.81
2022-10-06T09:21:53.820Z,101099.19
2022-10-06T09:22:40.637Z,101087.84
2022-10-06T09:23:51.779Z,101088.88
2022-10-06T09:24:50.692Z,101096.06